createdAt,value
2023-04-29T00:01:12.225Z,8.86
2023-04-29T00:06:17.154Z,8.86
2023-04-29T00:11:20.603Z,8.77
2023-04-29T00:16:24.073Z,8.65
2023-04-29T00:21:28.662Z,8.45
2023-04-29T00:26:31.911Z,8.23
2023-04-29T00:31:35.416Z,8.13
2023-04-29T00:36:39.956Z,7.98
2023-04-29T00:41:43.368Z,7.97
2023-04-29T00:46:46.605Z,7.90
2023-04-29T00:51:51.726Z,7.90
2023-04-29T00:56:55.808Z,7.95
2023-04-29T01:02:00.884Z,7.93
2023-04-29T01:07:15.786Z,8.03
2023-04-29T01:12:26.191Z,8.07
2023-04-29T01:17:34.190Z,8.01
2023-04-29T01:22:39.632Z,8.07
2023-04-29T01:27:53.761Z,8.01
2023-04-29T01:33:04.232Z,8.08
2023-04-29T01:38:18.482Z,8.61
2023-04-29T01:43:24.851Z,9.46
2023-04-29T01:48:29.785Z,9.86
2023-04-29T01:53:33.212Z,10.02
2023-04-29T01:58:38.410Z,9.99
2023-04-29T02:04:07.873Z,10.05
2023-04-29T02:09:12.564Z,10.01
2023-04-29T02:14:22.845Z,9.96
2023-04-29T02:19:26.631Z,10.11
2023-04-29T02:24:32.678Z,9.89
2023-04-29T02:29:37.331Z,9.75
2023-04-29T02:34:40.675Z,9.70
2023-04-29T02:39:43.894Z,9.96
2023-04-29T02:44:50.798Z,9.90
2023-04-29T02:49:54.498Z,10.13
2023-04-29T02:54:57.945Z,10.03
2023-04-29T03:00:04.490Z,10.15
2023-04-29T03:05:08.582Z,10.16
2023-04-29T03:10:12.204Z,10.31
2023-04-29T03:15:17.389Z,10.22
2023-04-29T03:20:21.910Z,10.33
2023-04-29T03:25:25.356Z,10.27
2023-04-29T03:30:30.385Z,10.45
2023-04-29T03:35:34.992Z,10.56
2023-04-29T03:40:47.412Z,10.63
2023-04-29T03:45:54.303Z,10.83
2023-04-29T03:51:00.499Z,10.69
2023-04-29T03:56:04.513Z,10.90
2023-04-29T04:01:09.692Z,10.97
2023-04-29T04:06:20.075Z,11.00
2023-04-29T04:11:24.228Z,11.13
2023-04-29T04:16:40.849Z,10.94
2023-04-29T04:21:44.996Z,11.12
2023-04-29T04:26:48.323Z,11.23
2023-04-29T04:32:00.524Z,11.25
2023-04-29T04:37:04.046Z,11.27
2023-04-29T04:42:08.585Z,11.37
2023-04-29T04:47:14.112Z,11.47
2023-04-29T04:52:26.743Z,11.72
2023-04-29T04:57:40.517Z,11.80
2023-04-29T05:02:45.317Z,11.78
2023-04-29T05:07:49.049Z,11.83
2023-04-29T05:12:55.195Z,11.86
2023-04-29T05:18:00.359Z,11.51
2023-04-29T05:23:03.884Z,11.78
2023-04-29T05:28:12.895Z,11.80
2023-04-29T05:33:20.603Z,11.99
2023-04-29T05:38:29.114Z,11.92
2023-04-29T05:43:39.720Z,11.74
2023-04-29T05:48:44.412Z,11.43
2023-04-29T05:53:48.909Z,11.39
2023-04-29T05:58:52.206Z,11.32
2023-04-29T06:03:57.074Z,11.52
2023-04-29T06:09:26.287Z,11.53
2023-04-29T06:14:31.926Z,11.57
2023-04-29T06:19:37.083Z,11.85
2023-04-29T06:24:40.418Z,11.89
2023-04-29T06:29:44.919Z,11.84
2023-04-29T06:34:51.428Z,12.32
2023-04-29T06:40:13.305Z,12.32
2023-04-29T06:45:35.299Z,12.32
2023-04-29T06:50:52.280Z,12.57
2023-04-29T06:55:55.862Z,12.96
2023-04-29T07:00:59.320Z,13.06
2023-04-29T07:06:04.977Z,12.83
2023-04-29T07:11:08.430Z,13.01
2023-04-29T07:16:17.377Z,13.17
2023-04-29T07:21:22.190Z,13.21
2023-04-29T07:26:25.700Z,13.25
2023-04-29T07:31:29.989Z,13.49
2023-04-29T07:36:35.550Z,13.58
2023-04-29T07:41:38.868Z,13.32
2023-04-29T07:46:42.239Z,12.89
2023-04-29T07:51:47.357Z,12.59
2023-04-29T07:56:50.652Z,12.36
2023-04-29T08:01:56.391Z,12.80
2023-04-29T08:07:02.765Z,13.06
2023-04-29T08:12:06.762Z,13.02
2023-04-29T08:17:10.101Z,12.82
2023-04-29T08:22:15.125Z,12.79
2023-04-29T08:27:18.757Z,12.63
2023-04-29T08:32:22.737Z,12.74
2023-04-29T08:37:27.792Z,12.21
2023-04-29T08:42:36.287Z,12.77
2023-04-29T08:47:42.424Z,12.47
2023-04-29T08:52:47.340Z,12.51
2023-04-29T08:57:55.730Z,12.51
2023-04-29T09:03:00.088Z,12.37
2023-04-29T09:08:06.025Z,12.19
2023-04-29T09:13:09.301Z,12.12
2023-04-29T09:18:12.560Z,12.20
2023-04-29T09:23:17.308Z,12.54
2023-04-29T09:28:20.645Z,12.65
2023-04-29T09:33:26.184Z,13.37
2023-04-29T09:38:30.738Z,13.06
2023-04-29T09:43:33.857Z,12.56
2023-04-29T09:48:37.025Z,12.51
2023-04-29T09:53:41.626Z,12.38
2023-04-29T09:58:45.986Z,12.93
2023-04-29T10:03:50.972Z,13.79
2023-04-29T10:08:56.037Z,13.47
2023-04-29T10:13:59.826Z,13.37
2023-04-29T10:19:13.378Z,13.78
2023-04-29T10:24:19.751Z,13.37
2023-04-29T10:29:24.140Z,14.31
2023-04-29T10:34:28.840Z,13.77
2023-04-29T10:39:52.107Z,13.60
2023-04-29T10:45:23.073Z,13.53
2023-04-29T10:50:29.195Z,13.80
2023-04-29T10:55:38.334Z,13.48
2023-04-29T11:00:41.501Z,13.01
2023-04-29T11:05:47.448Z,13.09
2023-04-29T11:10:54.717Z,13.00
2023-04-29T11:16:05.864Z,12.75
2023-04-29T11:21:15.578Z,12.60
2023-04-29T11:26:21.583Z,12.47
2023-04-29T11:31:28.994Z,12.16
2023-04-29T11:36:33.558Z,12.40
2023-04-29T11:41:39.668Z,12.07
2023-04-29T11:46:43.056Z,12.29
2023-04-29T11:51:46.554Z,12.78
2023-04-29T11:56:51.270Z,13.07
2023-04-29T12:01:54.600Z,12.74
2023-04-29T12:06:59.819Z,12.61
2023-04-29T12:12:05.463Z,12.80
2023-04-29T12:17:10.926Z,12.30
2023-04-29T12:22:14.316Z,12.13
2023-04-29T12:27:19.276Z,12.31
2023-04-29T12:32:25.130Z,12.80
2023-04-29T12:37:29.277Z,13.01
2023-04-29T12:42:35.169Z,12.82
2023-04-29T12:47:40.722Z,12.61
2023-04-29T12:52:44.286Z,12.21
2023-04-29T12:57:49.056Z,12.34
2023-04-29T13:02:52.471Z,12.52
2023-04-29T13:07:56.866Z,12.12
2023-04-29T13:13:01.576Z,12.29
2023-04-29T13:18:05.326Z,12.41
2023-04-29T13:23:09.098Z,13.07
2023-04-29T13:28:13.807Z,13.02
2023-04-29T13:33:18.455Z,13.03
2023-04-29T13:38:22.937Z,12.91
2023-04-29T13:43:36.800Z,13.20
2023-04-29T14:04:02.342Z,13.19
2023-04-29T14:09:06.096Z,12.99
2023-04-29T14:14:10.878Z,13.19
2023-04-29T14:19:14.473Z,13.07
2023-04-29T14:24:17.840Z,13.08
2023-04-29T14:29:22.597Z,13.13
2023-04-29T14:34:26.183Z,12.68
2023-04-29T14:39:29.436Z,12.71
2023-04-29T14:44:34.060Z,12.40
2023-04-29T14:49:37.394Z,12.77
2023-04-29T14:54:40.534Z,12.51
2023-04-29T14:59:45.244Z,12.45
2023-04-29T15:04:49.140Z,12.45
2023-04-29T15:09:52.492Z,12.19
2023-04-29T15:14:57.187Z,12.52
2023-04-29T15:20:00.564Z,12.54
2023-04-29T15:25:04.120Z,12.76
2023-04-29T15:30:09.864Z,12.68
2023-04-29T15:35:13.597Z,12.48
2023-04-29T15:40:17.722Z,12.70
2023-04-29T15:45:22.520Z,12.44
2023-04-29T15:50:25.842Z,12.10
2023-04-29T15:55:28.980Z,11.97
2023-04-29T16:00:33.612Z,12.46
2023-04-29T16:05:38.121Z,12.30
2023-04-29T16:10:41.717Z,12.29
2023-04-29T16:15:46.436Z,12.43
2023-04-29T16:20:49.872Z,12.48
2023-04-29T16:25:53.803Z,12.26
2023-04-29T16:30:58.785Z,12.15
2023-04-29T16:36:03.074Z,12.23
2023-04-29T16:41:07.479Z,11.87
2023-04-29T16:46:12.272Z,12.13
2023-04-29T16:51:16.400Z,11.80
2023-04-29T16:56:20.460Z,11.96
2023-04-29T17:01:26.123Z,11.94
2023-04-29T17:06:29.928Z,12.07
2023-04-29T17:11:33.647Z,12.11
2023-04-29T17:16:38.386Z,11.80
2023-04-29T17:21:41.606Z,11.80
2023-04-29T17:26:44.863Z,11.77
2023-04-29T17:31:54.941Z,11.74
2023-04-29T17:36:58.220Z,11.78
2023-04-29T17:42:02.335Z,11.87
2023-04-29T17:47:09.330Z,11.79
2023-04-29T17:52:14.090Z,11.75
2023-04-29T17:57:17.351Z,11.64
2023-04-29T18:02:22.024Z,11.54
2023-04-29T18:07:25.662Z,11.67
2023-04-29T18:12:29.056Z,11.64
2023-04-29T18:17:35.028Z,11.60
2023-04-29T18:22:38.566Z,11.58
2023-04-29T18:27:41.859Z,11.52
2023-04-29T18:32:46.539Z,11.44
2023-04-29T18:37:49.844Z,11.39
2023-04-29T18:42:53.250Z,11.19
2023-04-29T18:47:58.314Z,11.13
2023-04-29T18:53:01.626Z,11.15
2023-04-29T18:58:04.911Z,11.02
2023-04-29T19:03:09.610Z,10.79
2023-04-29T19:08:16.283Z,10.74
2023-04-29T19:13:19.838Z,10.89
2023-04-29T19:18:24.516Z,10.75
2023-04-29T19:23:27.861Z,10.50
2023-04-29T19:28:31.116Z,10.57
2023-04-29T19:33:36.424Z,10.36
2023-04-29T19:38:39.826Z,10.50
2023-04-29T19:43:43.106Z,10.35
2023-04-29T19:48:47.818Z,10.20
2023-04-29T19:53:51.462Z,10.38
2023-04-29T19:58:54.783Z,10.34
2023-04-29T20:03:59.520Z,10.23
2023-04-29T20:09:02.976Z,9.95
2023-04-29T20:14:06.341Z,10.28
2023-04-29T20:19:11.850Z,10.24
2023-04-29T20:24:15.362Z,10.03
2023-04-29T20:29:18.756Z,10.14
2023-04-29T20:34:23.545Z,10.00
2023-04-29T20:39:27.194Z,10.05
2023-04-29T20:44:31.014Z,10.02
2023-04-29T20:49:35.902Z,9.86
2023-04-29T20:54:39.145Z,9.92
2023-04-29T20:59:42.367Z,9.99
2023-04-29T21:04:47.237Z,9.67
2023-04-29T21:09:50.530Z,9.75
2023-04-29T21:14:53.646Z,9.60
2023-04-29T21:19:58.415Z,9.80
2023-04-29T21:25:01.734Z,9.68
2023-04-29T21:30:06.090Z,9.63
2023-04-29T21:35:11.379Z,9.68
2023-04-29T21:40:15.251Z,9.62
2023-04-29T21:45:18.849Z,9.68
2023-04-29T21:50:23.868Z,9.57
2023-04-29T21:55:27.202Z,9.54
2023-04-29T22:00:33.227Z,9.65
2023-04-29T22:05:38.513Z,9.46
2023-04-29T22:10:41.728Z,9.35
2023-04-29T22:15:45.475Z,9.19
2023-04-29T22:20:50.213Z,9.11
2023-04-29T22:25:53.483Z,8.99
2023-04-29T22:30:57.019Z,8.88
2023-04-29T22:36:01.857Z,8.59
2023-04-29T22:41:05.932Z,8.43
2023-04-29T22:46:09.761Z,8.31
2023-04-29T22:51:14.550Z,8.24
2023-04-29T22:56:17.929Z,8.14
2023-04-29T23:01:21.254Z,8.19
2023-04-29T23:06:26.389Z,8.25
2023-04-29T23:11:29.622Z,8.16
2023-04-29T23:16:33.086Z,8.10
2023-04-29T23:21:37.703Z,8.10
2023-04-29T23:26:40.969Z,7.71
2023-04-29T23:31:45.205Z,7.61
2023-04-29T23:36:50.119Z,7.52
2023-04-29T23:41:53.689Z,7.17
2023-04-29T23:46:57.071Z,6.97
2023-04-29T23:52:02.034Z,6.84
2023-04-29T23:57:05.331Z,6.72
